• Join FlightAware (Why Join?)
  • Login
  • US Flag 
09:28AM EDT


 

Airport Tracker/Info


-or-


 

Live Flight TrackerFlight Track Log ✈ UAL1635 ✈ 07-May-2013 ✈ KSFO - KEWR

Flight Track Log - Related Links

Times and Time Zones

All times are in EDT time to prevent confusion due to time zone crossing. See the UAL1635 flight status page for this flight to view local times or setup timezone preferences in your user account.

Time Position Orientation Groundspeed Altitude Reporting Facility
EDT Latitude Longitude Course Direction KTS MPH feet Rate Location/Type
02:21PM 37.6930 -122.2960 44° Northeast 251 289 3,000  Level FlightAware
02:22PM 37.7180 -122.2630 46° Northeast 265 305 4,300 2,760 Climbing FlightAware
02:22PM 37.7330 -122.2460 42° Northeast 269 310 5,100 2,820 Climbing FlightAware
02:22PM 37.7530 -122.2180 48° Northeast 275 316 6,200 3,000 Climbing FlightAware
02:23PM 37.7610 -122.1940 67° East 273 314 7,100 3,180 Climbing FlightAware
02:23PM 37.7660 -122.1730 73° East 272 313 7,800 2,820 Climbing FlightAware
02:23PM 37.7760 -122.1340 72° East 277 319 9,000 2,220 Climbing FlightAware
02:24PM 37.7950 -122.0630 71° East 309 356 10,400 1,620 Climbing FlightAware
02:25PM 37.8150 -121.9900 71° East 345 397 11,300 1,920 Climbing FlightAware
02:25PM 37.8390 -121.8980 72° East 359 413 13,200 2,700 Climbing FlightAware
02:26PM 37.8610 -121.8180 71° East 358 412 15,200 2,460 Climbing FlightAware
02:27PM 37.8810 -121.7420 72° East 370 426 16,500 2,040 Climbing FlightAware
02:28PM 37.9070 -121.6450 71° East 380 437 18,100 2,100 Climbing FlightAware
02:28PM 37.9300 -121.5580 71° East 387 445 19,500 2,040 Climbing FlightAware
02:29PM 37.9550 -121.4630 72° East 394 453 21,000 1,860 Climbing FlightAware
02:30PM 37.9780 -121.3750 72° East 401 461 22,200 1,800 Climbing FlightAware
02:30PM 38.0020 -121.2850 71° East 404 465 23,400 1,800 Climbing FlightAware
02:31PM 38.0290 -121.1810 72° East 406 467 24,800 1,680 Climbing FlightAware
02:32PM 38.0520 -121.0920 72° East 410 472 25,800 1,380 Climbing FlightAware
02:32PM 38.0760 -120.9990 72° East 416 479 26,700 1,380 Climbing FlightAware
02:33PM 38.1010 -120.8940 73° East 418 481 27,800 1,440 Climbing FlightAware
02:34PM 38.1230 -120.8030 73° East 415 478 28,800 1,680 Climbing FlightAware
02:35PM 38.1490 -120.6970 73° East 406 467 30,200 1,500 Climbing FlightAware
02:35PM 38.1700 -120.6060 74° East 407 468 31,000 960 Climbing FlightAware
02:36PM 38.1950 -120.5040 73° East 414 476 31,600 660 Climbing FlightAware
02:37PM 38.2150 -120.4180 73° East 418 481 32,000 720 Climbing FlightAware
02:38PM 38.2560 -120.2470 73° East 425 489 33,000 840 Climbing FlightAware
02:39PM 38.2850 -120.1220 73° East 427 491 33,700 780 Climbing FlightAware
02:39PM 38.3140 -119.9990 73° East 430 495 34,300 720 Climbing FlightAware
02:40PM 38.3350 -119.9050 74° East 431 496 34,800 540 Climbing FlightAware
02:41PM 38.3550 -119.8180 74° East 435 501 35,000 120 Climbing FlightAware
02:41PM 38.3790 -119.7200 73° East 435 501 35,000  Level FlightAware
02:42PM 38.3990 -119.6360 73° East 435 501 35,000  Level FlightAware
02:43PM 38.4190 -119.5530 73° East 435 501 35,000  Level FlightAware
02:44PM 38.4440 -119.4480 73° East 435 501 35,000  Level FlightAware
02:44PM 38.4810 -119.2700 75° East 447 514 35,000  Level FlightAware
02:45PM 38.4990 -119.1930 73° East 447 514 35,000  Level FlightAware
02:46PM 38.5200 -119.1070 73° East 447 514 35,000  Level FlightAware
02:46PM 38.5450 -118.9990 73° East 447 514 35,000  Level FlightAware
02:47PM 38.5660 -118.9130 73° East 447 514 35,000  Level FlightAware
02:48PM 38.5870 -118.8270 73° East 447 514 35,000  Level FlightAware
02:48PM 38.6070 -118.7410 73° East 447 514 35,000  Level FlightAware
02:49PM 38.6280 -118.6550 73° East 447 514 35,000  Level FlightAware
02:50PM 38.6530 -118.5480 73° East 447 514 35,000  Level FlightAware
02:51PM 38.6740 -118.4610 73° East 447 514 35,000  Level FlightAware
02:51PM 38.6940 -118.3750 73° East 447 514 35,000  Level FlightAware
02:52PM 38.7150 -118.2890 73° East 447 514 35,000  Level FlightAware
02:53PM 38.7350 -118.2030 73° East 447 514 35,000  Level FlightAware
02:53PM 38.7610 -118.0950 73° East 447 514 35,000  Level FlightAware
02:54PM 38.7820 -118.0090 73° East 447 514 35,000  Level FlightAware
02:55PM 38.6464 -117.6761 73° East 445 512 35,000  Level Salt Lake Center
02:55PM 38.6575 -117.5489 84° East 447 514 35,000  Level Oakland Center
02:56PM 38.6714 -117.3928 83° East 441 507 35,000  Level Oakland Center
02:57PM 38.6733 -117.3614 85° East 442 509 35,000  Level Salt Lake Center
02:58PM 38.6919 -117.2053 81° East 441 507 35,000  Level Salt Lake Center
02:59PM 38.7161 -117.0508 79° East 440 506 35,000  Level Salt Lake Center
02:59PM 38.7347 -116.9253 79° East 444 511 35,000  Level Oakland Center
03:00PM 38.7575 -116.7683 79° East 445 512 35,000  Level Oakland Center
03:01PM 38.7653 -116.7056 81° East 446 513 35,000  Level Salt Lake Center
03:01PM 38.7803 -116.6106 79° East 448 516 35,000  Level Oakland Center
03:03PM 38.8036 -116.4525 79° East 450 518 35,000  Level Oakland Center
03:04PM 38.8261 -116.2939 80° East 452 520 35,000  Level Oakland Center
03:04PM 38.8350 -116.2311 80° East 451 519 35,000  Level Salt Lake Center
03:05PM 38.8564 -116.0722 80° East 452 520 35,000  Level Salt Lake Center
03:06PM 38.8789 -115.9142 80° East 450 518 35,000  Level Salt Lake Center
03:07PM 38.9008 -115.7550 80° East 453 521 35,000  Level Salt Lake Center
03:08PM 38.9228 -115.5967 80° East 450 518 35,000  Level Salt Lake Center
03:09PM 38.9444 -115.4381 80° East 453 521 35,000  Level Salt Lake Center
03:10PM 38.9692 -115.2647 80° East 462 532 35,000  Level Salt Lake Center
03:11PM 38.9886 -115.1053 81° East 455 524 35,000  Level Salt Lake Center
03:12PM 39.0111 -114.9428 80° East 459 528 35,000  Level Salt Lake Center
03:13PM 39.0364 -114.7467 81° East 463 533 35,000  Level Salt Lake Center
03:14PM 39.0581 -114.5858 80° East 458 527 35,000  Level Salt Lake Center
03:15PM 39.0786 -114.4236 81° East 459 528 35,000  Level Salt Lake Center
03:16PM 39.0989 -114.2625 81° East 457 526 35,000  Level Salt Lake Center
03:17PM 39.1186 -114.1028 81° East 454 522 35,000  Level Salt Lake Center
03:18PM 39.1369 -113.9406 82° East 457 526 35,000  Level Salt Lake Center
03:19PM 39.1567 -113.7806 81° East 455 524 35,000  Level Salt Lake Center
03:20PM 39.1764 -113.6203 81° East 453 521 35,000  Level Salt Lake Center
03:21PM 39.1986 -113.4292 81° East 450 518 35,000  Level Salt Lake Center
03:22PM 39.2172 -113.2708 81° East 447 514 35,000  Level Salt Lake Center
03:23PM 39.2353 -113.1097 82° East 451 519 35,000  Level Salt Lake Center
03:24PM 39.2531 -112.9481 82° East 454 522 35,000  Level Salt Lake Center
03:25PM 39.2717 -112.7869 81° East 455 524 35,000  Level Salt Lake Center
03:26PM 39.2911 -112.6117 82° East 457 526 35,000  Level Salt Lake Center
03:27PM 39.3125 -112.4497 80° East 459 528 35,000  Level Salt Lake Center
03:28PM 39.3436 -112.2892 76° East 462 532 35,000  Level Salt Lake Center
03:34PM 39.5210 -111.3130 76° East 459 528 35,000  Level FlightAware
03:35PM 39.5370 -111.2190 78° East 459 528 35,000  Level FlightAware
03:36PM 39.5600 -111.0890 77° East 459 528 35,000  Level FlightAware
03:37PM 39.5780 -110.9830 78° East 457 526 35,000  Level FlightAware
03:37PM 39.5940 -110.8920 77° East 455 524 35,000  Level FlightAware
03:38PM 39.6310 -110.6760 77° East 453 521 35,000  Level FlightAware
03:39PM 39.6500 -110.5670 77° East 454 522 35,000  Level FlightAware
03:40PM 39.6680 -110.4620 77° East 455 524 35,000  Level FlightAware
03:41PM 39.6890 -110.3380 78° East 457 526 35,000  Level FlightAware
03:41PM 39.7060 -110.2330 78° East 457 526 35,000  Level FlightAware
03:42PM 39.7320 -110.1120 74° East 461 531 35,000  Level FlightAware
03:43PM 39.7910 -109.8940 71° East 466 536 35,000  Level FlightAware
03:44PM 39.8200 -109.7880 70° East 467 537 35,000  Level FlightAware
03:45PM 39.8400 -109.6840 76° East 466 536 35,000  Level FlightAware
03:45PM 39.8580 -109.5540 80° East 466 536 35,000  Level FlightAware
03:46PM 39.8710 -109.4470 81° East 466 536 35,000  Level FlightAware
03:47PM 39.8880 -109.3140 81° East 468 539 35,000  Level FlightAware
03:48PM 39.9040 -109.2050 79° East 468 539 35,000  Level FlightAware
03:48PM 39.9130 -109.1170 82° East 469 540 35,000  Level FlightAware
03:49PM 39.9250 -108.9750 84° East 470 541 35,000  Level FlightAware
03:50PM 39.9330 -108.8660 84° East 472 543 35,000  Level FlightAware
03:50PM 39.9420 -108.7320 85° East 473 544 35,000  Level FlightAware
03:51PM 39.9500 -108.6200 85° East 473 544 35,000  Level FlightAware
03:52PM 39.9680 -108.4890 80° East 471 542 35,000  Level FlightAware
03:52PM 39.9860 -108.3950 76° East 471 542 35,000  Level FlightAware
03:55PM 40.0510 -108.0350 77° East 474 545 35,000  Level FlightAware
03:55PM 40.0720 -107.9190 77° East 472 543 35,000  Level FlightAware
03:56PM 40.0860 -107.8420 77° East 470 541 35,000  Level FlightAware
03:56PM 40.1080 -107.7160 77° East 467 537 35,000  Level FlightAware
03:57PM 40.1280 -107.6080 76° East 467 537 35,000  Level FlightAware
03:58PM 40.1480 -107.4940 77° East 467 537 35,000  Level FlightAware
03:59PM 40.1690 -107.3720 77° East 467 537 35,000  Level FlightAware
03:59PM 40.1880 -107.2630 77° East 465 535 35,000  Level FlightAware
04:00PM 40.2090 -107.1430 77° East 459 528 35,000  Level FlightAware
04:01PM 40.2280 -107.0330 77° East 454 522 35,000  Level FlightAware
04:01PM 40.2460 -106.9290 77° East 455 524 35,000  Level FlightAware
04:02PM 40.2670 -106.8100 77° East 453 521 35,000  Level FlightAware
04:03PM 40.2840 -106.7100 77° East 453 521 35,000  Level FlightAware
04:03PM 40.3060 -106.5780 78° East 453 521 35,000  Level FlightAware
04:04PM 40.3230 -106.4760 78° East 454 522 35,000  Level FlightAware
04:05PM 40.3420 -106.3610 78° East 456 525 35,000  Level FlightAware
04:06PM 40.3610 -106.2440 78° East 456 525 35,000  Level FlightAware
04:06PM 40.3790 -106.1390 77° East 457 526 35,000  Level FlightAware
04:07PM 40.3990 -106.0130 78° East 456 525 35,000  Level FlightAware
04:08PM 40.4170 -105.9050 78° East 457 526 35,000  Level FlightAware
04:08PM 40.4350 -105.7930 78° East 457 526 35,000  Level FlightAware
04:09PM 40.4520 -105.6860 78° East 458 527 35,000  Level FlightAware
04:10PM 40.4740 -105.5520 78° East 459 528 35,000  Level FlightAware
04:10PM 40.4910 -105.4430 78° East 459 528 35,000  Level FlightAware
04:11PM 40.5047 -105.3540 79° East 459 528 35,000  Level FlightAware ADS-B
04:11PM 40.5182 -105.2670 78° East 456 525 35,000  Level FlightAware ADS-B
04:12PM 40.5313 -105.1820 79° East 451 519 35,000  Level FlightAware ADS-B
04:13PM 40.5438 -105.1010 78° East 448 516 35,000  Level FlightAware ADS-B
04:13PM 40.5562 -105.0200 79° East 448 516 35,000  Level FlightAware ADS-B
04:14PM 40.5685 -104.9400 79° East 448 516 35,000  Level FlightAware ADS-B
04:14PM 40.5859 -104.8260 79° East 448 516 35,000  Level FlightAware ADS-B
04:15PM 40.5983 -104.7450 79° East 447 514 35,000  Level FlightAware ADS-B
04:15PM 40.6111 -104.6590 79° East 445 512 35,000  Level FlightAware ADS-B
04:16PM 40.6232 -104.5790 79° East 444 511 35,000  Level FlightAware ADS-B
04:16PM 40.6351 -104.4980 79° East 444 511 35,000  Level FlightAware ADS-B
04:17PM 40.6469 -104.4190 79° East 443 510 35,000  Level FlightAware ADS-B
04:17PM 40.6590 -104.3370 79° East 443 510 35,000  Level FlightAware ADS-B
04:18PM 40.6709 -104.2560 79° East 443 510 35,000  Level FlightAware ADS-B
04:18PM 40.6827 -104.1750 79° East 445 512 35,000  Level FlightAware ADS-B
04:19PM 40.6944 -104.0940 79° East 447 514 35,000  Level FlightAware ADS-B
04:19PM 40.7061 -104.0140 79° East 448 516 35,000  Level FlightAware ADS-B
04:20PM 40.7179 -103.9320 79° East 449 517 35,000  Level FlightAware ADS-B
04:20PM 40.7297 -103.8510 79° East 451 519 35,000  Level FlightAware ADS-B
04:21PM 40.7412 -103.7680 80° East 454 522 35,000  Level FlightAware ADS-B
04:21PM 40.7531 -103.6830 80° East 458 527 35,000  Level FlightAware ADS-B
04:22PM 40.7650 -103.5990 79° East 459 528 35,000  Level FlightAware ADS-B
04:22PM 40.7768 -103.5150 79° East 462 532 35,000  Level FlightAware ADS-B
04:23PM 40.7886 -103.4310 79° East 463 533 35,000  Level FlightAware ADS-B
04:23PM 40.8003 -103.3470 80° East 464 534 35,000  Level FlightAware ADS-B
04:24PM 40.8122 -103.2600 80° East 468 539 35,000  Level FlightAware ADS-B
04:24PM 40.8240 -103.1740 80° East 469 540 35,000  Level FlightAware ADS-B
04:25PM 40.8356 -103.0890 80° East 471 542 35,000  Level FlightAware ADS-B
04:26PM 40.8516 -102.9690 80° East 471 542 35,000  Level FlightAware ADS-B
04:26PM 40.8630 -102.8840 80° East 467 537 35,000  Level FlightAware ADS-B
04:27PM 40.8746 -102.7970 80° East 467 537 35,000  Level FlightAware ADS-B
04:27PM 40.8862 -102.7100 80° East 468 539 35,000  Level FlightAware ADS-B
04:28PM 40.8994 -102.6100 80° East 470 541 35,000  Level FlightAware ADS-B
04:28PM 40.9109 -102.5220 80° East 471 542 35,000  Level FlightAware ADS-B
04:29PM 40.9235 -102.4260 80° East 472 543 35,000  Level FlightAware ADS-B
04:29PM 40.9348 -102.3390 80° East 474 545 35,000  Level FlightAware ADS-B
04:30PM 40.9458 -102.2530 80° East 474 545 35,000  Level FlightAware ADS-B
04:30PM 40.9569 -102.1650 80° East 474 545 35,000  Level FlightAware ADS-B
04:31PM 40.9680 -102.0760 81° East 475 547 35,000  Level FlightAware ADS-B
04:31PM 40.9797 -101.9840 80° East 476 548 35,000  Level FlightAware ADS-B
04:32PM 40.9907 -101.8960 81° East 475 547 35,000  Level FlightAware ADS-B
04:34PM 41.0265 -101.6070 81° East 473 544 35,000  Level FlightAware ADS-B
04:34PM 41.0375 -101.5160 81° East 473 544 35,000  Level FlightAware ADS-B
04:35PM 41.0389 -101.5067 81° East 474 545 35,000  Level Denver Center
04:36PM 41.0650 -101.2875 81° East 472 543 35,000  Level Denver Center
04:37PM 41.0844 -101.1222 81° East 472 543 35,000  Level Denver Center
04:38PM 41.1044 -100.9558 81° East 472 543 35,000  Level Denver Center
04:39PM 41.1281 -100.7608 81° East 474 545 35,000  Level Denver Center
04:40PM 41.1522 -100.5942 79° East 476 548 35,000  Level Denver Center
04:41PM 41.2050 -100.4094 69° East 477 549 35,000  Level Denver Center
04:42PM 41.2489 -100.2506 70° East 478 550 35,000  Level Denver Center
04:43PM 41.3014 -100.0669 69° East 476 548 35,000  Level Denver Center
04:44PM 41.3472 -99.9089 69° East 477 549 35,000  Level Denver Center
04:45PM 41.3939 -99.7481 69° East 477 549 35,000  Level Denver Center
04:46PM 41.4428 -99.5844 68° East 474 545 35,000  Level Denver Center
04:47PM 41.4919 -99.4206 68° East 473 544 35,000  Level Denver Center
04:48PM 41.5492 -99.2222 69° East 473 544 35,000  Level Denver Center
04:49PM 41.5872 -99.0519 73° East 473 544 35,000  Level Denver Center
04:49PM 41.5947 -99.0186 73° East 473 544 35,000  Level Minneapolis Center
04:50PM 41.6261 -98.8461 76° East 475 547 35,000  Level Minneapolis Center
04:52PM 41.6244 -98.6694 91° East 471 542 35,000  Level Minneapolis Center
04:53PM 41.6206 -98.4581 91° East 470 541 35,000  Level Minneapolis Center
04:54PM 41.6169 -98.2817 92° East 472 543 35,000  Level Minneapolis Center
04:55PM 41.6125 -98.0517 91° East 472 543 35,000  Level Minneapolis Center
04:56PM 41.6081 -97.8756 92° East 473 544 35,000  Level Minneapolis Center
04:57PM 41.6053 -97.6994 91° East 474 545 35,000  Level Minneapolis Center
04:58PM 41.6011 -97.5244 92° East 473 544 35,000  Level Minneapolis Center
04:59PM 41.5964 -97.3150 92° East 471 542 35,000  Level Minneapolis Center
05:00PM 41.5900 -97.1419 93° East 468 539 35,000  Level Minneapolis Center
05:01PM 41.5850 -96.9700 92° East 465 535 35,000  Level Minneapolis Center
05:02PM 41.5800 -96.7986 92° East 463 533 35,000  Level Minneapolis Center
05:03PM 41.5736 -96.6269 93° East 464 534 35,000  Level Minneapolis Center
05:04PM 41.5681 -96.4553 92° East 462 532 35,000  Level Minneapolis Center
05:05PM 41.5603 -96.2636 93° East 467 537 35,000  Level Minneapolis Center
05:06PM 41.5536 -96.0922 93° East 464 534 35,000  Level Minneapolis Center
05:07PM 41.5486 -95.9217 92° East 460 529 35,000  Level Minneapolis Center
05:08PM 41.5417 -95.7483 93° East 465 535 35,000  Level Minneapolis Center
05:14PM 41.4940 -94.6800 93° East 467 537 35,000  Level FlightAware
05:15PM 41.4900 -94.5820 93° East 467 537 35,000  Level FlightAware
05:16PM 41.4870 -94.4840 92° East 467 537 35,000  Level FlightAware
05:17PM 41.4740 -94.2970 95° East 465 535 35,000  Level FlightAware
05:17PM 41.4670 -94.1670 94° East 464 534 35,000  Level FlightAware
05:18PM 41.4610 -94.0520 94° East 464 534 35,000  Level FlightAware
05:19PM 41.4530 -93.9230 95° East 465 535 35,000  Level FlightAware
05:19PM 41.4470 -93.8080 94° East 465 535 35,000  Level FlightAware
05:20PM 41.4390 -93.6720 94° East 466 536 35,000  Level FlightAware
05:21PM 41.4500 -93.5240 84° East 466 536 35,000  Level FlightAware
05:22PM 41.4610 -93.4060 83° East 467 537 35,000  Level FlightAware
05:22PM 41.4720 -93.2920 83° East 466 536 35,000  Level FlightAware
05:23PM 41.4840 -93.1610 83° East 461 531 35,000  Level FlightAware
05:24PM 41.4950 -93.0500 82° East 456 525 35,000  Level FlightAware
05:25PM 41.5060 -92.9270 83° East 452 520 35,000  Level FlightAware
05:25PM 41.5160 -92.8150 83° East 452 520 35,000  Level FlightAware
05:26PM 41.5260 -92.7050 83° East 452 520 35,000  Level FlightAware
05:27PM 41.5370 -92.5840 83° East 453 521 35,000  Level FlightAware
05:27PM 41.5470 -92.4740 83° East 453 521 35,000  Level FlightAware
05:28PM 41.5600 -92.3270 83° East 454 522 35,000  Level FlightAware
05:29PM 41.5710 -92.2000 83° East 453 521 35,000  Level FlightAware
05:30PM 41.5840 -92.0440 84° East 453 521 35,000  Level FlightAware
05:32PM 41.6080 -91.7460 84° East 450 518 35,000  Level FlightAware
05:33PM 41.6180 -91.6210 84° East 450 518 35,000  Level FlightAware
05:33PM 41.6270 -91.5140 84° East 449 517 35,000  Level FlightAware
05:34PM 41.6370 -91.3840 84° East 448 516 35,000  Level FlightAware
05:35PM 41.6450 -91.2770 84° East 448 516 35,000  Level FlightAware
05:35PM 41.6530 -91.1770 84° East 449 517 35,000  Level FlightAware
05:36PM 41.6650 -91.0200 84° East 451 519 35,000  Level FlightAware
05:37PM 41.6750 -90.8880 84° East 452 520 35,000  Level FlightAware
05:38PM 41.6830 -90.7770 84° East 453 521 35,000  Level FlightAware
05:38PM 41.6920 -90.6480 85° East 449 517 35,000  Level FlightAware
05:39PM 41.7000 -90.5310 85° East 446 513 35,000  Level FlightAware
05:40PM 41.7090 -90.4120 84° East 445 512 35,000  Level FlightAware
05:40PM 41.7170 -90.3000 84° East 445 512 35,000  Level FlightAware
05:41PM 41.7240 -90.1950 85° East 444 511 35,000  Level FlightAware
05:42PM 41.7320 -90.0690 85° East 441 507 35,000  Level FlightAware
05:43PM 41.7390 -89.9590 85° East 438 504 35,000  Level FlightAware
05:43PM 41.7470 -89.8410 85° East 436 502 35,000  Level FlightAware
05:44PM 41.7540 -89.7350 85° East 435 501 35,000  Level FlightAware
05:45PM 41.7610 -89.6150 85° East 433 498 35,000  Level FlightAware
05:45PM 41.7680 -89.5040 85° East 433 498 35,000  Level FlightAware
05:46PM 41.7750 -89.4020 85° East 432 497 35,000  Level FlightAware
05:47PM 41.7820 -89.2810 86° East 431 496 35,000  Level FlightAware
05:47PM 41.7880 -89.1750 86° East 430 495 35,000  Level FlightAware
05:48PM 41.7950 -89.0520 86° East 431 496 35,000  Level FlightAware
05:49PM 41.8010 -88.9520 85° East 431 496 35,000  Level FlightAware
05:50PM 41.8070 -88.8440 86° East 431 496 35,000  Level FlightAware
05:50PM 41.8130 -88.7250 86° East 431 496 35,000  Level FlightAware
05:51PM 41.8190 -88.6160 86° East 427 491 35,000  Level FlightAware
05:52PM 41.8250 -88.5050 86° East 425 489 35,000  Level FlightAware
05:52PM 41.8320 -88.3830 86° East 424 488 35,000  Level FlightAware
05:53PM 41.8370 -88.2760 86° East 422 486 35,000  Level FlightAware
05:54PM 41.8420 -88.1710 86° East 421 484 35,000  Level FlightAware
05:55PM 41.8480 -88.0580 86° East 421 484 35,000  Level FlightAware
05:55PM 41.8530 -87.9520 86° East 420 483 35,000  Level FlightAware
05:56PM 41.8580 -87.8490 86° East 419 482 35,000  Level FlightAware
05:57PM 41.8630 -87.7420 86° East 419 482 35,000  Level FlightAware
05:57PM 41.8680 -87.6260 87° East 419 482 35,000  Level FlightAware
05:58PM 41.8730 -87.5130 87° East 420 483 35,000  Level FlightAware
05:59PM 41.8770 -87.4180 87° East 421 484 35,000  Level FlightAware
05:59PM 41.8820 -87.3020 87° East 422 486 35,000  Level FlightAware
06:00PM 41.8870 -87.1850 87° East 424 488 35,000  Level FlightAware
06:01PM 41.8920 -87.0800 86° East 425 489 35,000  Level FlightAware
06:01PM 41.8960 -86.9770 87° East 425 489 35,000  Level FlightAware
06:02PM 41.9000 -86.8570 87° East 424 488 35,000  Level FlightAware
06:03PM 41.9040 -86.7520 87° East 423 487 35,000  Level FlightAware
06:03PM 41.9070 -86.6760 87° East 422 486 35,000  Level FlightAware
06:04PM 41.9110 -86.5690 87° East 420 483 35,000  Level FlightAware
06:05PM 41.9150 -86.4510 87° East 418 481 35,000  Level FlightAware
06:05PM 41.9190 -86.3480 87° East 417 480 35,000  Level FlightAware
06:06PM 41.9220 -86.2370 88° East 417 480 35,000  Level FlightAware
06:07PM 41.9250 -86.1540 87° East 416 479 35,000  Level FlightAware
06:08PM 41.9290 -86.0240 88° East 415 478 35,000  Level FlightAware
06:08PM 41.9330 -85.9090 87° East 415 478 35,000  Level FlightAware
06:09PM 41.9350 -85.8160 88° East 415 478 35,000  Level FlightAware
06:10PM 41.9390 -85.6850 88° East 413 475 35,000  Level FlightAware
06:11PM 41.9420 -85.5660 88° East 412 474 35,000  Level FlightAware
06:11PM 41.9460 -85.4490 87° East 412 474 35,000  Level FlightAware
06:12PM 41.9480 -85.3400 89° East 414 476 35,000  Level FlightAware
06:13PM 41.9500 -85.2600 88° East 415 478 35,000  Level FlightAware
06:13PM 41.9530 -85.1550 88° East 415 478 35,000  Level FlightAware
06:14PM 41.9500 -85.0330 92° East 418 481 35,000  Level FlightAware
06:15PM 41.9500 -84.9240 90° East 418 481 35,000  Level FlightAware
06:16PM 41.9500 -84.8050 90° East 419 482 35,000  Level FlightAware
06:16PM 41.9490 -84.6910 91° East 419 482 35,000  Level FlightAware
06:17PM 41.9480 -84.5940 91° East 418 481 35,000  Level FlightAware
06:18PM 41.9470 -84.4750 91° East 417 480 35,000  Level FlightAware
06:18PM 41.9460 -84.3670 91° East 415 478 35,000  Level FlightAware
06:19PM 41.9450 -84.2530 91° East 414 476 35,000  Level FlightAware
06:20PM 41.9440 -84.1280 91° East 413 475 35,000  Level FlightAware
06:21PM 41.9420 -84.0110 91° East 411 473 35,000  Level FlightAware
06:21PM 41.9410 -83.8920 91° East 411 473 35,000  Level FlightAware
06:22PM 41.9400 -83.7990 91° East 411 473 35,000  Level FlightAware
06:23PM 41.9380 -83.7260 92° East 411 473 35,000  Level FlightAware
06:24PM 41.9360 -83.5850 91° East 412 474 35,000  Level FlightAware
06:24PM 41.9340 -83.4570 91° East 414 476 35,000  Level FlightAware
06:25PM 41.9340 -83.3550 90° East 414 476 35,000  Level FlightAware
06:26PM 41.9340 -83.2300 90° East 415 478 35,000  Level FlightAware
06:26PM 41.9330 -83.1490 91° East 415 478 35,000  Level FlightAware
06:27PM 41.9320 -82.9790 90° East 415 478 35,000  Level FlightAware
06:28PM 41.9310 -82.8490 91° East 415 478 35,000  Level FlightAware
06:29PM 41.9300 -82.7290 91° East 415 478 35,000  Level FlightAware
06:30PM 41.9290 -82.6150 91° East 415 478 35,000  Level FlightAware
06:30PM 41.9280 -82.5270 91° East 416 479 35,000  Level FlightAware
06:31PM 41.9270 -82.4410 91° East 417 480 35,000  Level FlightAware
06:32PM 41.9240 -82.2510 91° East 418 481 35,000  Level FlightAware
06:33PM 41.9230 -82.1460 91° East 419 482 35,000  Level FlightAware
06:33PM 41.9210 -82.0300 91° East 421 484 35,000  Level FlightAware
06:34PM 41.9190 -81.9170 91° East 422 486 35,000  Level FlightAware
06:35PM 41.9170 -81.8210 92° East 423 487 35,000  Level FlightAware
06:36PM 41.9060 -81.6960 97° East 424 488 35,000  Level FlightAware
06:36PM 41.8960 -81.5890 97° East 427 491 35,000  Level FlightAware
06:37PM 41.8860 -81.4790 97° East 429 494 35,000  Level FlightAware
06:38PM 41.8760 -81.3640 97° East 430 495 35,000  Level FlightAware
06:38PM 41.8660 -81.2570 97° East 430 495 35,000  Level FlightAware
06:39PM 41.8550 -81.1410 97° East 428 493 35,000  Level FlightAware
06:40PM 41.8460 -81.0480 97° East 428 493 35,000  Level FlightAware
06:40PM 41.8350 -80.9280 97° East 422 486 35,000  Level FlightAware
06:41PM 41.8210 -80.7860 97° East 405 466 35,000  Level FlightAware
06:42PM 41.8110 -80.6860 98° East 404 465 35,000  Level FlightAware
06:43PM 41.8030 -80.5960 97° East 402 463 35,000  Level FlightAware
06:44PM 41.7910 -80.4790 98° East 401 461 35,000  Level FlightAware
06:44PM 41.7810 -80.3800 98° East 399 459 35,000  Level FlightAware
06:45PM 41.7700 -80.2700 98° East 399 459 35,000  Level FlightAware
06:46PM 41.7600 -80.1740 98° East 399 459 35,000  Level FlightAware
06:46PM 41.7510 -80.0790 97° East 398 458 35,000  Level FlightAware
06:47PM 41.7390 -79.9670 98° East 400 460 35,000  Level FlightAware
06:48PM 41.7270 -79.8560 98° East 405 466 35,000  Level FlightAware
06:48PM 41.7170 -79.7590 98° East 406 467 35,000  Level FlightAware
06:49PM 41.7070 -79.6610 98° East 406 467 35,000  Level FlightAware
06:50PM 41.6950 -79.5530 98° East 405 466 35,000  Level FlightAware
06:51PM 41.6820 -79.4350 98° East 403 464 35,000  Level FlightAware
06:51PM 41.6730 -79.3470 98° East 415 478 35,000  Level FlightAware
06:52PM 41.6620 -79.2480 98° East 419 482 35,000  Level FlightAware
06:53PM 41.6510 -79.1510 99° East 420 483 35,000  Level FlightAware
06:53PM 41.6370 -79.0270 99° East 421 484 35,000  Level FlightAware
06:54PM 41.6240 -78.9090 98° East 422 486 35,000  Level FlightAware
06:55PM 41.6110 -78.8000 99° East 427 491 35,000  Level FlightAware
06:55PM 41.5980 -78.6890 99° East 429 494 35,000  Level FlightAware
06:56PM 41.5850 -78.5750 99° East 432 497 35,000  Level FlightAware
06:57PM 41.5730 -78.4680 98° East 433 498 35,000 -120 Level FlightAware
06:57PM 41.5610 -78.3730 100° East 434 499 34,900 -660 Descending FlightAware
06:58PM 41.5470 -78.2520 99° East 435 501 34,100 -960 Descending FlightAware
06:59PM 41.5340 -78.1480 99° East 437 503 33,500 -1,500 Descending FlightAware
07:00PM 41.5200 -78.0270 99° East 437 503 32,000 -1,920 Descending FlightAware
07:00PM 41.5100 -77.9460 99° East 437 503 31,000 -600 Descending FlightAware
07:01PM 41.4800 -77.7390 101° East 440 506 31,000  Level FlightAware
07:02PM 41.4630 -77.6200 101° East 441 507 31,000  Level FlightAware
07:03PM 41.4500 -77.5330 101° East 441 507 31,000  Level FlightAware
07:04PM 41.4320 -77.4070 101° East 441 507 31,000  Level FlightAware
07:04PM 41.4120 -77.2660 101° East 441 507 31,000  Level FlightAware
07:05PM 41.3910 -77.1240 101° East 440 506 31,000  Level FlightAware
07:06PM 41.3710 -76.9940 102° East 439 505 31,000  Level FlightAware
07:07PM 41.3550 -76.8830 101° East 437 503 31,000 -240 Level FlightAware
07:07PM 41.3455 -76.8217 102° East 438 504 30,800 -1,080 Descending FlightAware ADS-B
07:07PM 41.3389 -76.7813 102° East 437 503 30,500 -2,700 Descending FlightAware ADS-B
07:08PM 41.3126 -76.6776 109° East 436 502 28,300 -2,940 Descending FlightAware ADS-B
07:09PM 41.2912 -76.5979 110° East 437 503 27,000 -2,340 Descending FlightAware ADS-B
07:09PM 41.2622 -76.4897 110° East 426 490 25,400 -2,400 Descending FlightAware ADS-B
07:10PM 41.2376 -76.3980 110° East 415 478 23,800 -2,520 Descending FlightAware ADS-B
07:11PM 41.2078 -76.2873 110° East 409 471 21,900 -2,400 Descending FlightAware ADS-B
07:11PM 41.1842 -76.2010 110° East 397 457 20,400 -2,400 Descending FlightAware ADS-B
07:12PM 41.1620 -76.1202 110° East 389 448 19,000 -2,040 Descending FlightAware ADS-B
07:13PM 41.1404 -76.0408 110° East 382 440 18,000 -960 Descending FlightAware ADS-B
07:13PM 41.1221 -75.9743 110° East 384 442 18,000  Level FlightAware ADS-B
07:14PM 41.1026 -75.9035 110° East 382 440 18,000 -420 Level FlightAware ADS-B
07:14PM 41.0835 -75.8345 110° East 383 441 17,600 -1,260 Descending FlightAware ADS-B
07:15PM 41.0641 -75.7639 110° East 384 442 16,700 -1,800 Descending FlightAware ADS-B
07:15PM 41.0458 -75.6979 110° East 377 434 15,800 -1,860 Descending FlightAware ADS-B
07:16PM 41.0272 -75.6308 110° East 374 430 14,800 -1,980 Descending FlightAware ADS-B
07:16PM 41.0079 -75.5622 110° East 366 421 13,700 -2,280 Descending FlightAware ADS-B
07:17PM 40.9904 -75.4993 110° East 361 415 12,500 -2,160 Descending FlightAware ADS-B
07:17PM 40.9655 -75.4105 110° East 353 406 11,100 -1,440 Descending FlightAware ADS-B
07:18PM 40.9390 -75.3150 110° East 310 357 10,200 -900 Descending FlightAware
07:19PM 40.9295 -75.2823 111° Southeast 334 384 10,100 -720 Descending FlightAware ADS-B
07:19PM 40.9212 -75.2528 110° East 334 384 9,800 -1,020 Descending FlightAware ADS-B
07:19PM 40.9053 -75.1963 110° East 334 384 9,200 -1,140 Descending FlightAware ADS-B
07:20PM 40.8913 -75.1472 111° Southeast 334 384 8,600 -1,020 Descending FlightAware ADS-B
07:20PM 40.8789 -75.1036 111° Southeast 272 313 8,200 -1,020 Descending FlightAware ADS-B
07:21PM 40.8670 -75.0616 111° Southeast 266 306 7,700 -1,080 Descending FlightAware ADS-B
07:21PM 40.8626 -75.0446 109° East 267 307 7,500 -1,140 Descending FlightAware ADS-B
07:21PM 40.8612 -75.0358 102° East 266 306 7,400 -1,140 Descending FlightAware ADS-B
07:21PM 40.8597 -75.0187 97° East 266 306 7,200 -1,020 Descending FlightAware ADS-B
07:22PM 40.8563 -74.9781 96° East 265 305 6,800 -600 Descending FlightAware ADS-B
07:22PM 40.8539 -74.9481 96° East 262 302 6,800  Level FlightAware ADS-B
07:22PM 40.8513 -74.9180 97° East 262 302 6,800 120 Level FlightAware ADS-B
07:23PM 40.8492 -74.8929 96° East 260 299 6,900  Climbing FlightAware ADS-B
07:23PM 40.8472 -74.8679 96° East 262 302 6,800 -240 Descending FlightAware ADS-B
07:23PM 40.8452 -74.8424 96° East 260 299 6,800  Level FlightAware ADS-B
07:23PM 40.8431 -74.8171 96° East 261 300 6,800 -660 Level FlightAware ADS-B
07:24PM 40.8403 -74.7825 96° East 263 303 6,400 -780 Descending FlightAware ADS-B
07:25PM 40.8560 -74.7030 75° East 264 304 5,800 -540 Descending FlightAware
07:25PM 40.8810 -74.6670 47° Northeast 263 303 5,700 -660 Descending FlightAware
07:26PM 40.9000 -74.6320 54° Northeast 264 304 5,200 -1,020 Descending FlightAware
07:26PM 40.9210 -74.5950 53° Northeast 262 302 4,800 -480 Descending FlightAware
07:27PM 40.9370 -74.5650 55° Northeast 259 298 4,800  Level FlightAware
07:27PM 40.9600 -74.5250 53° Northeast 260 299 4,800  Level FlightAware
07:28PM 40.9790 -74.4910 53° Northeast 260 299 4,800  Level FlightAware
07:28PM 40.9860 -74.4400 80° East 232 267 4,800  Level FlightAware
07:29PM 40.9850 -74.3940 92° East 213 245 4,800  Level FlightAware
07:29PM 40.9762 -74.3714 117° Southeast 213 245 4,800  Level FlightAware ADS-B
07:29PM 40.9683 -74.3519 118° Southeast 211 243 4,800  Level FlightAware ADS-B
07:30PM 40.9587 -74.3286 119° Southeast 211 243 4,800 -360 Level FlightAware ADS-B
07:30PM 40.9513 -74.3106 119° Southeast 214 246 4,600 -960 Descending FlightAware ADS-B
07:30PM 40.9433 -74.2909 118° Southeast 217 250 4,300 -1,140 Descending FlightAware ADS-B
07:31PM 40.9360 -74.2733 119° Southeast 215 247 4,000 -1,020 Descending FlightAware ADS-B
07:31PM 40.9287 -74.2557 119° Southeast 213 245 3,800 -420 Descending FlightAware ADS-B
07:31PM 40.9215 -74.2381 118° Southeast 208 239 3,800  Level FlightAware ADS-B
07:31PM 40.9145 -74.2211 119° Southeast 207 238 3,800  Level FlightAware ADS-B
07:32PM 40.9068 -74.2022 118° Southeast 207 238 3,800 180 Level FlightAware ADS-B
07:32PM 40.8999 -74.1854 119° Southeast 203 234 3,900  Climbing FlightAware ADS-B
07:32PM 40.8933 -74.1695 119° Southeast 191 220 3,800 -240 Descending FlightAware ADS-B
07:32PM 40.8871 -74.1545 119° Southeast 183 211 3,800  Level FlightAware ADS-B
07:32PM 40.8844 -74.1477 118° Southeast 182 209 3,800  Level FlightAware ADS-B
07:33PM 40.8830 -74.1428 111° Southeast 181 208 3,800  Level FlightAware ADS-B
07:33PM 40.8810 -74.1344 107° East 180 207 3,800 -420 Level FlightAware ADS-B
07:33PM 40.8751 -74.1093 107° East 179 206 3,600 -780 Descending FlightAware ADS-B
07:33PM 40.8712 -74.0927 107° East 180 207 3,300 -1,140 Descending FlightAware ADS-B
07:33PM 40.8694 -74.0866 111° Southeast 179 206 3,200 -720 Descending FlightAware ADS-B
07:33PM 40.8681 -74.0836 120° Southeast 178 205 3,200 -780 Level FlightAware ADS-B
07:34PM 40.8658 -74.0800 130° Southeast 177 204 3,100 -1,200 Descending FlightAware ADS-B
07:34PM 40.8624 -74.0765 142° Southeast 176 203 3,000 -960 Descending FlightAware ADS-B
07:34PM 40.8560 -74.0735 160° South 177 204 2,900 -540 Descending FlightAware ADS-B
07:34PM 40.8531 -74.0731 174° South 179 206 2,900 -600 Level FlightAware ADS-B
07:34PM 40.8476 -74.0729 178° South 181 208 2,800 -600 Descending FlightAware ADS-B
07:34PM 40.8444 -74.0730 181° South 180 207 2,800  Level FlightAware ADS-B
07:34PM 40.8366 -74.0746 189° South 182 209 2,800 -420 Level FlightAware ADS-B
07:34PM 40.8320 -74.0764 196° South 186 214 2,700 -1,140 Descending FlightAware ADS-B
07:34PM 40.8268 -74.0791 201° Southwest 188 216 2,600 -960 Descending FlightAware ADS-B
07:34PM 40.8218 -74.0821 204° Southwest 190 219 2,500 -960 Descending FlightAware ADS-B
07:35PM 40.7971 -74.0983 206° Southwest 189 217 2,000 -960 Descending FlightAware ADS-B
07:35PM 40.7874 -74.1044 205° Southwest 189 217 1,800 -1,020 Descending FlightAware ADS-B
07:35PM 40.7740 -74.1129 206° Southwest 188 216 1,500 -1,140 Descending FlightAware ADS-B
07:36PM 40.7623 -74.1203 206° Southwest 185 213 1,200 -1,080 Descending FlightAware ADS-B
07:36PM 40.7520 -74.1270 206° Southwest 176 203 1,000 -840 Descending FlightAware ADS-B
07:36PM 40.7402 -74.1345 206° Southwest 161 185 800 -720 Descending FlightAware ADS-B
07:37PM 40.7298 -74.1411 206° Southwest 152 175 600 -720 Descending FlightAware ADS-B